This is the latest recevied weather packets stored in our database for station/object KI4HRG. If no packets are shown the sender has not sent any weather packets the latest 10 day(s).
| Time | Temp. | Humidity | Pressure | Rain* | Wind** | Luminosity | Snow |
|---|---|---|---|---|---|---|---|
| 1788103748 | 29.44° C | 77% | 1021.4 hPa | 0 mm | - | 187 W/m² | - |
| 1788103442 | 28.33° C | 80% | 1021.2 hPa | 0 mm | - | 862 W/m² | - |
| 1788103136 | 28.33° C | 81% | 1021.1 hPa | 0 mm | - | 183 W/m² | - |
| 1788102835 | 28.33° C | 81% | 1021.1 hPa | 0 mm | - | 143 W/m² | - |
| 1788102525 | 27.78° C | 83% | 1021.2 hPa | 0 mm | - | 812 W/m² | - |
| 1788102224 | 27.78° C | 83% | 1021.3 hPa | 0 mm | - | 163 W/m² | - |
| 1788101919 | 27.78° C | 84% | 1021.4 hPa | 0 mm | - | 522 W/m² | - |
| 1788101614 | 27.78° C | 83% | 1021.2 hPa | 0 mm | - | 194 W/m² | - |
| 1788101309 | 28.33° C | 81% | 1021.3 hPa | 0 mm | - | 254 W/m² | - |
| 1788101005 | 27.78° C | 83% | 1021.5 hPa | 0 mm | - | 674 W/m² | - |
| 1788100701 | 27.78° C | 83% | 1021.4 hPa | 0 mm | - | 217 W/m² | - |
| 1788100400 | 27.78° C | 83% | 1021.3 hPa | 0 mm | - | 167 W/m² | - |
| 1788100095 | 27.78° C | 82% | 1021.1 hPa | 0 mm | - | 560 W/m² | - |
| 1788099795 | 27.78° C | 82% | 1021.4 hPa | 0 mm | - | 507 W/m² | - |
| 1788099490 | 27.78° C | 82% | 1021.3 hPa | 0 mm | - | 533 W/m² | - |
| 1788099185 | 27.78° C | 84% | 1021.4 hPa | 0 mm | - | 507 W/m² | - |
| 1788098880 | 26.67° C | 86% | 1021.4 hPa | 0 mm | - | 440 W/m² | - |
| 1788098575 | 27.22° C | 86% | 1021.5 hPa | 0 mm | - | 132 W/m² | - |
| 1788098270 | 27.22° C | 86% | 1021.3 hPa | 0 mm | - | 349 W/m² | - |
| 1788097965 | 27.22° C | 86% | 1021.3 hPa | 0 mm | - | 354 W/m² | - |
| 1788097662 | 26.67° C | 89% | 1021.3 hPa | 0 mm | - | 294 W/m² | - |
| 1788097361 | 26.11° C | 90% | 1021.3 hPa | 0 mm | - | 144 W/m² | - |
| 1788097057 | 26.67° C | 89% | 1021.3 hPa | 0 mm | - | 144 W/m² | - |
| 1788096753 | 26.67° C | 89% | 1021.3 hPa | 0 mm | - | 287 W/m² | - |
| 1788096448 | 26.11° C | 91% | 1021.5 hPa | 0 mm | - | 305 W/m² | - |
* Rain latest hour (hover to see other rain measurements)
** Current wind speed in m/s (hover to see current wind gust speed)